Zanesville, OH (43701)

4:26 AM EDT on July 29, 2016 (GMT -0400)
APRSWXNET | | Change Station

Elev 839 ft 39.95 °N, 82.00 °W | Updated 23 minutes ago

Fog
Fog
71 °F
Feels Like 71 °F
N
0
Wind Variable Wind from SW
Gusts 0.0 mph

Today
High -- | Low -- °F
--% Chance of Precip.
Yesterday
High -- | Low -- °F
Precip. -- in
Pressure 29.90 in
Visibility 0.5 miles
Clouds
Dew Point 71 °F
Humidity 100%
Rainfall in
Snow Depth Not available.
6:24 AM 8:44 PM
Waning Crescent, 24% visible
METAR KZZV 290753Z AUTO 00000KT 1/2SM FG VV002 23/22 A2992 RMK AO2 SLP124 T02280217 $
Pressure 29.90 in
Visibility 0.5 miles
Clouds
Dew Point 71 °F
Humidity 100%
Rainfall in
Snow Depth Not available.
6:24 AM 8:44 PM
Waning Crescent, 24% visible
METAR KZZV 290753Z AUTO 00000KT 1/2SM FG VV002 23/22 A2992 RMK AO2 SLP124 T02280217 $

10-Day Weather Forecast

Almanac

Astronomy

Jul. 29, 2016 Rise Set
Actual Time
Civil Twilight
Nautical Twilight
Astronomical Twilight
Moon
Length of Visible Light
Length of Day
Tomorrow will be .
, % of the Moon is Illuminated

Today's Extremes

State Highs State Lows

Community

WunderPhotos

Upload Photos

1,928,300 photos uploaded!

WunderBlog® & News

Nearby

Air Quality

  Air Quality AQ Index Pollutant
Not available.

Snow Depth

Station Depth Elevation

Earthquake Activity

City Distance Mag. Time & Date
Minimum magnitude displayed is 2.5.

Coastal Water Temperatures

Place Temperature

Stations

Nearby Weather Stations

Station Location Temp. Windchill Dew Point Humidity Wind Precip. Elev Updated Type
                   

Watches & Warnings

There are currently no watches in effect.